createdAt,value
2019-03-19T00:00:30.553Z,1.56
2019-03-19T00:02:59.713Z,1.56
2019-03-19T00:05:28.768Z,1.55
2019-03-19T00:07:57.850Z,1.55
2019-03-19T00:10:26.908Z,1.55
2019-03-19T00:12:55.986Z,1.55
2019-03-19T00:15:25.045Z,1.54
2019-03-19T00:17:54.123Z,1.54
2019-03-19T00:20:23.114Z,1.52
2019-03-19T00:22:52.204Z,1.49
2019-03-19T00:25:29.494Z,1.48
2019-03-19T00:27:52.082Z,1.47
2019-03-19T00:30:21.150Z,1.45
2019-03-19T00:32:50.230Z,1.47
2019-03-19T00:35:19.286Z,1.45
2019-03-19T00:37:48.369Z,1.45
2019-03-19T00:40:17.635Z,1.44
2019-03-19T00:42:46.631Z,1.42
2019-03-19T00:45:15.693Z,1.43
2019-03-19T00:47:44.811Z,1.39
2019-03-19T00:50:13.901Z,1.37
2019-03-19T00:52:42.982Z,1.37
2019-03-19T00:55:12.209Z,1.38
2019-03-19T00:57:41.289Z,1.35
2019-03-19T01:00:10.671Z,1.37
2019-03-19T01:02:39.746Z,1.37
2019-03-19T01:05:09.152Z,1.35
2019-03-19T01:07:38.226Z,1.35
2019-03-19T01:10:07.564Z,1.34
2019-03-19T01:12:36.630Z,1.33
2019-03-19T01:15:06.906Z,1.31
2019-03-19T01:17:35.966Z,1.31
2019-03-19T01:20:05.599Z,1.31
2019-03-19T01:22:35.124Z,1.30
2019-03-19T01:25:04.724Z,1.30
2019-03-19T01:27:33.893Z,1.29
2019-03-19T01:30:02.935Z,1.27
2019-03-19T01:32:32.009Z,1.28
2019-03-19T01:35:01.071Z,1.29
2019-03-19T01:37:30.089Z,1.30
2019-03-19T01:39:59.072Z,1.30
2019-03-19T01:42:28.075Z,1.31
2019-03-19T01:44:57.050Z,1.35
2019-03-19T01:47:26.142Z,1.39
2019-03-19T01:49:55.142Z,1.43
2019-03-19T01:52:24.162Z,1.44
2019-03-19T01:54:53.066Z,1.45
2019-03-19T01:57:22.077Z,1.49
2019-03-19T01:59:51.123Z,1.52
2019-03-19T02:02:20.215Z,1.55
2019-03-19T02:04:49.276Z,1.59
2019-03-19T02:07:18.365Z,1.60
2019-03-19T02:09:47.358Z,1.64
2019-03-19T02:12:16.442Z,1.64
2019-03-19T02:14:45.492Z,1.65
2019-03-19T02:17:14.574Z,1.66
2019-03-19T02:19:43.633Z,1.66
2019-03-19T02:22:12.632Z,1.67
2019-03-19T02:24:41.684Z,1.65
2019-03-19T02:27:10.761Z,1.64
2019-03-19T02:29:39.749Z,1.65
2019-03-19T02:32:08.750Z,1.64
2019-03-19T02:34:37.809Z,1.62
2019-03-19T02:37:06.880Z,1.62
2019-03-19T02:39:35.924Z,1.61
2019-03-19T02:42:05.018Z,1.60
2019-03-19T02:44:34.008Z,1.60
2019-03-19T02:47:03.084Z,1.58
2019-03-19T02:49:32.170Z,1.56
2019-03-19T02:52:01.285Z,1.56
2019-03-19T02:54:30.306Z,1.55
2019-03-19T02:56:59.389Z,1.55
2019-03-19T02:59:28.453Z,1.55
2019-03-19T03:01:57.529Z,1.57
2019-03-19T03:04:26.616Z,1.59
2019-03-19T03:06:57.120Z,1.59
2019-03-19T03:09:26.178Z,1.61
2019-03-19T03:11:55.260Z,1.63
2019-03-19T03:14:24.335Z,1.63
2019-03-19T03:16:53.388Z,1.65
2019-03-19T03:19:22.460Z,1.68
2019-03-19T03:21:51.526Z,1.72
2019-03-19T03:24:20.600Z,1.73
2019-03-19T03:26:49.659Z,1.76
2019-03-19T03:29:18.960Z,1.77
2019-03-19T03:31:48.027Z,1.80
2019-03-19T03:34:17.040Z,1.81
2019-03-19T03:36:46.093Z,1.82
2019-03-19T03:39:15.172Z,1.84
2019-03-19T03:41:44.236Z,1.87
2019-03-19T03:44:13.311Z,1.89
2019-03-19T03:46:42.292Z,1.89
2019-03-19T03:49:11.317Z,1.89
2019-03-19T03:51:40.311Z,1.91
2019-03-19T03:54:09.402Z,1.91
2019-03-19T03:56:38.461Z,1.89
2019-03-19T03:59:07.546Z,1.90
2019-03-19T04:01:36.603Z,1.87
2019-03-19T04:04:05.791Z,1.85
2019-03-19T04:06:34.847Z,1.86
2019-03-19T04:09:08.843Z,1.86
2019-03-19T04:11:36.089Z,1.84
2019-03-19T04:14:05.176Z,1.82
2019-03-19T04:16:34.310Z,1.81
2019-03-19T04:19:03.398Z,1.81
2019-03-19T04:21:32.461Z,1.79
2019-03-19T04:24:01.543Z,1.76
2019-03-19T04:26:30.587Z,1.76
2019-03-19T04:28:59.666Z,1.75
2019-03-19T04:31:28.745Z,1.71
2019-03-19T04:33:57.826Z,1.70
2019-03-19T04:36:26.898Z,1.64
2019-03-19T04:38:55.903Z,1.64
2019-03-19T04:41:24.957Z,1.62
2019-03-19T04:43:54.046Z,1.60
2019-03-19T04:46:23.108Z,1.59
2019-03-19T04:48:52.062Z,1.59
2019-03-19T04:51:21.138Z,1.58
2019-03-19T04:53:50.151Z,1.58
2019-03-19T04:56:19.208Z,1.57
2019-03-19T04:58:48.266Z,1.59
2019-03-19T05:01:17.356Z,1.60
2019-03-19T05:03:46.419Z,1.60
2019-03-19T05:06:15.432Z,1.61
2019-03-19T05:08:44.423Z,1.63
2019-03-19T05:11:13.510Z,1.63
2019-03-19T05:13:42.495Z,1.64
2019-03-19T05:16:11.503Z,1.65
2019-03-19T05:18:40.564Z,1.67
2019-03-19T05:21:09.651Z,1.69
2019-03-19T05:23:38.627Z,1.68
2019-03-19T05:26:07.722Z,1.70
2019-03-19T05:28:36.794Z,1.71
2019-03-19T05:31:05.869Z,1.72
2019-03-19T05:33:34.863Z,1.73
2019-03-19T05:36:03.941Z,1.73
2019-03-19T05:38:32.928Z,1.73
2019-03-19T05:41:02.014Z,1.73
2019-03-19T05:43:31.068Z,1.73
2019-03-19T05:46:00.167Z,1.70
2019-03-19T05:48:29.177Z,1.71
2019-03-19T05:50:58.259Z,1.71
2019-03-19T05:53:27.241Z,1.69
2019-03-19T05:55:56.326Z,1.70
2019-03-19T05:58:25.316Z,1.68
2019-03-19T06:00:54.402Z,1.66
2019-03-19T06:03:23.450Z,1.67
2019-03-19T06:05:52.529Z,1.64
2019-03-19T06:08:21.594Z,1.65
2019-03-19T06:10:50.671Z,1.65
2019-03-19T06:13:19.722Z,1.67
2019-03-19T06:15:48.801Z,1.68
2019-03-19T06:18:17.793Z,1.68
2019-03-19T06:20:46.879Z,1.71
2019-03-19T06:23:15.943Z,1.71
2019-03-19T06:25:44.952Z,1.73
2019-03-19T06:28:13.942Z,1.76
2019-03-19T06:30:42.963Z,1.80
2019-03-19T06:33:11.949Z,1.84
2019-03-19T06:35:41.034Z,1.89
2019-03-19T06:38:10.095Z,1.93
2019-03-19T06:40:39.172Z,1.97
2019-03-19T06:43:08.154Z,2.01
2019-03-19T06:45:37.236Z,2.02
2019-03-19T06:48:06.324Z,2.05
2019-03-19T06:50:44.793Z,2.05
2019-03-19T06:53:06.220Z,2.07
2019-03-19T06:55:35.308Z,2.09
2019-03-19T06:58:10.938Z,2.08
2019-03-19T07:00:35.225Z,2.12
2019-03-19T07:03:04.397Z,2.15
2019-03-19T07:05:33.470Z,2.19
2019-03-19T07:08:02.529Z,2.23
2019-03-19T07:10:31.609Z,2.26
2019-03-19T07:13:00.660Z,2.27
2019-03-19T07:15:29.753Z,2.30
2019-03-19T07:17:58.743Z,2.34
2019-03-19T07:20:27.839Z,2.37
2019-03-19T07:22:56.889Z,2.41
2019-03-19T07:25:25.978Z,2.46
2019-03-19T07:27:55.113Z,2.49
2019-03-19T07:30:24.292Z,2.54
2019-03-19T07:32:53.352Z,2.58
2019-03-19T07:35:22.361Z,2.64
2019-03-19T07:37:51.412Z,2.69
2019-03-19T07:40:20.502Z,2.77
2019-03-19T07:42:49.556Z,2.83
2019-03-19T07:45:18.741Z,2.93
2019-03-19T07:47:47.800Z,2.99
2019-03-19T07:50:16.955Z,3.06
2019-03-19T07:52:46.018Z,3.12
2019-03-19T07:55:15.113Z,3.16
2019-03-19T07:57:44.179Z,3.21
2019-03-19T08:00:14.704Z,3.25
2019-03-19T08:02:43.769Z,3.30
2019-03-19T08:05:12.811Z,3.32
2019-03-19T08:07:41.885Z,3.33
2019-03-19T08:10:10.973Z,3.37
2019-03-19T08:12:40.153Z,3.44
2019-03-19T08:15:10.794Z,3.49
2019-03-19T08:17:39.930Z,3.58
2019-03-19T08:20:10.895Z,3.67
2019-03-19T08:22:39.977Z,3.78
2019-03-19T08:25:10.033Z,3.86
2019-03-19T08:27:39.042Z,3.93
2019-03-19T08:30:10.493Z,4.00
2019-03-19T08:32:39.572Z,4.07
2019-03-19T08:35:08.736Z,4.14
2019-03-19T08:37:37.820Z,4.24
2019-03-19T08:40:07.906Z,4.30
2019-03-19T08:42:36.986Z,4.39
2019-03-19T08:45:06.904Z,4.49
2019-03-19T08:47:35.835Z,4.64
2019-03-19T08:50:05.590Z,4.74
2019-03-19T08:52:34.603Z,4.85
2019-03-19T08:55:03.703Z,4.93
2019-03-19T08:57:32.784Z,5.01
2019-03-19T09:00:01.783Z,5.12
2019-03-19T09:02:30.787Z,5.19
2019-03-19T09:04:59.779Z,5.25
2019-03-19T09:07:28.857Z,5.28
2019-03-19T09:09:57.926Z,5.29
2019-03-19T09:12:26.930Z,5.40
2019-03-19T09:14:55.910Z,5.56
2019-03-19T09:17:24.923Z,5.62
2019-03-19T09:19:53.987Z,5.69
2019-03-19T09:22:23.073Z,5.73
2019-03-19T09:24:52.089Z,5.79
2019-03-19T09:27:21.167Z,5.78
2019-03-19T09:29:50.227Z,5.74
2019-03-19T09:32:19.328Z,5.68
2019-03-19T09:34:48.383Z,5.61
2019-03-19T09:37:17.473Z,5.57
2019-03-19T09:39:46.529Z,5.58
2019-03-19T09:42:15.606Z,5.67
2019-03-19T09:44:44.658Z,5.77
2019-03-19T09:47:13.750Z,5.97
2019-03-19T09:49:42.832Z,6.14
2019-03-19T09:52:11.926Z,6.31
2019-03-19T09:54:40.987Z,6.52
2019-03-19T09:57:10.066Z,6.67
2019-03-19T09:59:39.151Z,6.89
2019-03-19T10:02:08.230Z,7.03
2019-03-19T10:04:37.301Z,7.15
2019-03-19T10:07:06.676Z,7.32
2019-03-19T10:09:35.840Z,7.39
2019-03-19T10:12:04.950Z,7.51
2019-03-19T10:14:34.001Z,7.71
2019-03-19T10:17:03.084Z,7.98
2019-03-19T10:19:32.138Z,8.15
2019-03-19T10:22:01.274Z,8.11
2019-03-19T10:24:30.322Z,8.08
2019-03-19T10:26:59.327Z,8.03
2019-03-19T10:29:37.854Z,7.94
2019-03-19T10:31:59.195Z,7.82
2019-03-19T10:34:28.188Z,7.81
2019-03-19T10:36:57.304Z,7.82
2019-03-19T10:39:26.281Z,7.80
2019-03-19T10:41:55.368Z,7.80
2019-03-19T10:44:24.439Z,7.82
2019-03-19T10:46:53.443Z,7.74
2019-03-19T10:49:22.524Z,7.63
2019-03-19T10:51:51.606Z,7.55
2019-03-19T10:54:20.680Z,7.54
2019-03-19T10:56:49.767Z,7.38
2019-03-19T10:59:18.772Z,7.30
2019-03-19T11:01:47.849Z,7.16
2019-03-19T11:04:16.909Z,7.00
2019-03-19T11:06:46.003Z,6.92
2019-03-19T11:09:15.077Z,6.87
2019-03-19T11:11:44.215Z,6.91
2019-03-19T11:14:13.273Z,6.87
2019-03-19T11:16:42.344Z,6.80
2019-03-19T11:19:11.434Z,6.80
2019-03-19T11:21:40.492Z,6.81
2019-03-19T11:24:09.570Z,6.78
2019-03-19T11:26:38.553Z,6.79
2019-03-19T11:29:07.561Z,6.80
2019-03-19T11:31:36.629Z,6.78
2019-03-19T11:34:05.738Z,6.80
2019-03-19T11:36:34.803Z,6.82
2019-03-19T11:39:05.520Z,6.84
2019-03-19T11:41:34.513Z,6.81
2019-03-19T11:44:03.597Z,6.78
2019-03-19T11:46:32.673Z,6.79
2019-03-19T11:49:01.779Z,6.88
2019-03-19T11:51:30.842Z,7.02
2019-03-19T11:53:59.857Z,7.08
2019-03-19T11:56:28.915Z,7.25
2019-03-19T11:58:57.995Z,7.56
2019-03-19T12:01:27.062Z,7.90
2019-03-19T12:03:56.138Z,8.27
2019-03-19T12:06:25.191Z,8.55
2019-03-19T12:08:54.272Z,8.70
2019-03-19T12:11:23.346Z,8.72
2019-03-19T12:13:52.437Z,8.72
2019-03-19T12:16:21.438Z,8.73
2019-03-19T12:18:50.559Z,8.74
2019-03-19T12:21:19.604Z,8.69
2019-03-19T12:23:48.688Z,8.63
2019-03-19T12:26:17.754Z,8.55
2019-03-19T12:28:47.023Z,8.52
2019-03-19T12:31:16.068Z,8.59
2019-03-19T12:33:45.157Z,8.76
2019-03-19T12:36:14.155Z,8.94
2019-03-19T12:38:43.246Z,9.22
2019-03-19T12:41:12.296Z,9.33
2019-03-19T12:43:41.387Z,9.31
2019-03-19T12:46:10.459Z,9.22
2019-03-19T12:48:39.551Z,9.15
2019-03-19T12:51:08.541Z,9.10
2019-03-19T12:53:37.617Z,9.04
2019-03-19T12:56:06.677Z,9.04
2019-03-19T12:58:35.681Z,9.04
2019-03-19T13:01:04.898Z,9.08
2019-03-19T13:03:34.030Z,9.23
2019-03-19T13:06:03.027Z,9.48
2019-03-19T13:08:32.116Z,9.76
2019-03-19T13:11:01.128Z,9.98
2019-03-19T13:13:30.218Z,10.35
2019-03-19T13:15:59.282Z,10.62
2019-03-19T13:18:28.298Z,10.84
2019-03-19T13:20:57.366Z,10.89
2019-03-19T13:23:26.461Z,10.90
2019-03-19T13:25:56.821Z,10.90
2019-03-19T13:28:26.006Z,10.88
2019-03-19T13:30:55.012Z,10.76
2019-03-19T13:33:24.101Z,10.66
2019-03-19T13:35:53.162Z,10.58
2019-03-19T13:38:22.252Z,10.48
2019-03-19T13:40:51.328Z,10.38
2019-03-19T13:43:20.351Z,10.25
2019-03-19T13:45:49.417Z,10.14
2019-03-19T13:48:18.513Z,10.04
2019-03-19T13:50:47.595Z,9.99
2019-03-19T13:53:16.678Z,9.93
2019-03-19T13:55:45.749Z,9.85
2019-03-19T13:58:14.843Z,9.85
2019-03-19T14:00:43.920Z,9.80
2019-03-19T14:03:12.998Z,9.71
2019-03-19T14:05:42.056Z,9.54
2019-03-19T14:08:11.128Z,9.43
2019-03-19T14:10:40.213Z,9.31
2019-03-19T14:13:09.304Z,9.25
2019-03-19T14:15:38.352Z,9.16
2019-03-19T14:18:07.419Z,9.19
2019-03-19T14:20:36.510Z,9.16
2019-03-19T14:23:05.673Z,9.14
2019-03-19T14:25:34.690Z,9.12
2019-03-19T14:28:03.759Z,9.10
2019-03-19T14:30:32.763Z,9.04
2019-03-19T14:33:01.821Z,9.02
2019-03-19T14:35:37.267Z,9.00
2019-03-19T14:38:01.671Z,8.95
2019-03-19T14:40:30.860Z,8.89
2019-03-19T14:43:01.425Z,8.84
2019-03-19T14:45:30.706Z,8.80
2019-03-19T14:47:59.776Z,8.74
2019-03-19T14:50:28.895Z,8.65
2019-03-19T14:52:57.947Z,8.58
2019-03-19T14:55:27.034Z,8.51
2019-03-19T14:57:56.093Z,8.47
2019-03-19T15:00:25.180Z,8.45
2019-03-19T15:02:54.257Z,8.44
2019-03-19T15:05:23.339Z,8.44
2019-03-19T15:07:52.411Z,8.39
2019-03-19T15:10:21.491Z,8.36
2019-03-19T15:12:50.551Z,8.36
2019-03-19T15:15:19.648Z,8.35
2019-03-19T15:17:48.716Z,8.34
2019-03-19T15:20:18.365Z,8.32
2019-03-19T15:22:47.422Z,8.30
2019-03-19T15:25:16.505Z,8.28
2019-03-19T15:27:45.567Z,8.27
2019-03-19T15:30:14.840Z,8.23
2019-03-19T15:32:43.923Z,8.20
2019-03-19T15:35:13.006Z,8.17
2019-03-19T15:37:42.053Z,8.12
2019-03-19T15:40:12.456Z,8.08
2019-03-19T15:42:41.512Z,8.04
2019-03-19T15:45:11.459Z,8.02
2019-03-19T15:47:40.513Z,8.00
2019-03-19T15:50:12.006Z,7.99
2019-03-19T15:52:41.061Z,7.96
2019-03-19T15:55:11.063Z,8.00
2019-03-19T15:57:40.099Z,7.99
2019-03-19T16:00:12.500Z,7.99
2019-03-19T16:02:41.555Z,7.96
2019-03-19T16:05:11.101Z,7.93
2019-03-19T16:07:40.180Z,7.88
2019-03-19T16:10:09.590Z,7.84
2019-03-19T16:12:38.657Z,7.81
2019-03-19T16:15:08.803Z,7.80
2019-03-19T16:17:37.870Z,7.77
2019-03-19T16:20:08.630Z,7.74
2019-03-19T16:22:37.689Z,7.73
2019-03-19T16:25:06.921Z,7.70
2019-03-19T16:27:35.911Z,7.67
2019-03-19T16:30:05.642Z,7.64
2019-03-19T16:32:34.716Z,7.63
2019-03-19T16:35:03.903Z,7.60
2019-03-19T16:37:58.533Z,7.55
2019-03-19T16:40:27.611Z,7.53
2019-03-19T16:42:56.672Z,7.48
2019-03-19T16:45:25.756Z,7.49
2019-03-19T16:47:54.812Z,7.49
2019-03-19T16:50:23.941Z,7.45
2019-03-19T16:52:53.010Z,7.42
2019-03-19T16:55:22.094Z,7.40
2019-03-19T16:57:51.155Z,7.37
2019-03-19T17:00:20.256Z,7.34
2019-03-19T17:02:49.249Z,7.31
2019-03-19T17:05:18.380Z,7.30
2019-03-19T17:07:47.433Z,7.29
2019-03-19T17:10:16.949Z,7.24
2019-03-19T17:12:46.009Z,7.24
2019-03-19T17:15:15.495Z,7.21
2019-03-19T17:17:44.594Z,7.20
2019-03-19T17:20:13.739Z,7.18
2019-03-19T17:22:42.802Z,7.16
2019-03-19T17:25:13.475Z,7.15
2019-03-19T17:27:42.632Z,7.14
2019-03-19T17:30:17.615Z,7.11
2019-03-19T17:32:46.687Z,7.09
2019-03-19T17:35:15.780Z,7.07
2019-03-19T17:38:02.580Z,7.05
2019-03-19T17:40:40.983Z,7.03
2019-03-19T17:43:02.442Z,7.01
2019-03-19T17:45:31.536Z,6.97
2019-03-19T17:48:00.657Z,6.93
2019-03-19T17:50:29.651Z,6.91
2019-03-19T17:52:58.647Z,6.90
2019-03-19T17:55:27.657Z,6.88
2019-03-19T17:57:56.724Z,6.87
2019-03-19T18:00:26.846Z,6.83
2019-03-19T18:02:55.908Z,6.80
2019-03-19T18:05:24.999Z,6.77
2019-03-19T18:07:54.063Z,6.73
2019-03-19T18:10:23.147Z,6.70
2019-03-19T18:12:52.208Z,6.67
2019-03-19T18:15:21.299Z,6.60
2019-03-19T18:17:50.355Z,6.54
2019-03-19T18:20:19.444Z,6.48
2019-03-19T18:22:48.510Z,6.43
2019-03-19T18:25:17.601Z,6.36
2019-03-19T18:27:46.677Z,6.32
2019-03-19T18:30:16.271Z,6.28
2019-03-19T18:32:45.370Z,6.24
2019-03-19T18:35:14.427Z,6.20
2019-03-19T18:37:43.515Z,6.14
2019-03-19T18:40:12.585Z,6.12
2019-03-19T18:42:41.692Z,6.09
2019-03-19T18:45:11.177Z,6.05
2019-03-19T18:47:40.255Z,6.01
2019-03-19T18:50:11.385Z,5.97
2019-03-19T18:52:40.469Z,5.91
2019-03-19T18:55:09.684Z,5.88
2019-03-19T18:57:41.334Z,5.86
2019-03-19T19:00:12.056Z,5.82
2019-03-19T19:02:49.787Z,5.78
2019-03-19T19:05:12.409Z,5.76
2019-03-19T19:07:41.498Z,5.73
2019-03-19T19:10:11.251Z,5.70
2019-03-19T19:12:40.349Z,5.66
2019-03-19T19:15:11.346Z,5.64
2019-03-19T19:17:40.428Z,5.62
2019-03-19T19:20:10.364Z,5.62
2019-03-19T19:22:39.452Z,5.61
2019-03-19T19:25:10.289Z,5.59
2019-03-19T19:27:39.383Z,5.60
2019-03-19T19:30:11.244Z,5.61
2019-03-19T19:32:40.337Z,5.58
2019-03-19T19:35:09.393Z,5.56
2019-03-19T19:37:38.506Z,5.55
2019-03-19T19:40:09.166Z,5.52
2019-03-19T19:42:38.241Z,5.49
2019-03-19T19:45:07.589Z,5.44
2019-03-19T19:47:36.670Z,5.41
2019-03-19T19:50:07.693Z,5.38
2019-03-19T19:52:36.778Z,5.36
2019-03-19T19:55:06.081Z,5.32
2019-03-19T19:57:35.218Z,5.30
2019-03-19T20:00:05.050Z,5.24
2019-03-19T20:02:34.135Z,5.21
2019-03-19T20:05:03.766Z,5.18
2019-03-19T20:07:32.967Z,5.13
2019-03-19T20:10:02.011Z,5.11
2019-03-19T20:12:31.013Z,5.08
2019-03-19T20:15:00.011Z,5.03
2019-03-19T20:17:29.150Z,4.98
2019-03-19T20:19:58.195Z,4.94
2019-03-19T20:22:27.276Z,4.89
2019-03-19T20:24:56.338Z,4.85
2019-03-19T20:27:25.411Z,4.80
2019-03-19T20:29:54.464Z,4.75
2019-03-19T20:32:23.540Z,4.72
2019-03-19T20:34:52.600Z,4.68
2019-03-19T20:37:21.616Z,4.64
2019-03-19T20:39:50.683Z,4.58
2019-03-19T20:42:19.770Z,4.55
2019-03-19T20:44:48.831Z,4.49
2019-03-19T20:47:17.905Z,4.44
2019-03-19T20:49:48.016Z,4.40
2019-03-19T20:52:17.288Z,4.36
2019-03-19T20:54:46.353Z,4.33
2019-03-19T20:57:15.426Z,4.28
2019-03-19T20:59:44.496Z,4.25
2019-03-19T21:02:13.566Z,4.20
2019-03-19T21:04:42.654Z,4.16
2019-03-19T21:07:11.618Z,4.13
2019-03-19T21:09:40.695Z,4.11
2019-03-19T21:12:09.744Z,4.07
2019-03-19T21:14:38.815Z,4.03
2019-03-19T21:17:07.885Z,3.97
2019-03-19T21:19:37.014Z,3.92
2019-03-19T21:22:06.019Z,3.88
2019-03-19T21:24:35.095Z,3.83
2019-03-19T21:27:04.165Z,3.79
2019-03-19T21:29:33.252Z,3.77
2019-03-19T21:32:02.306Z,3.72
2019-03-19T21:34:31.386Z,3.69
2019-03-19T21:37:00.443Z,3.65
2019-03-19T21:39:29.534Z,3.62
2019-03-19T21:41:58.587Z,3.58
2019-03-19T21:44:27.604Z,3.53
2019-03-19T21:46:56.673Z,3.47
2019-03-19T21:49:25.772Z,3.39
2019-03-19T21:51:54.841Z,3.30
2019-03-19T21:54:23.850Z,3.21
2019-03-19T21:56:52.903Z,3.14
2019-03-19T21:59:21.984Z,3.09
2019-03-19T22:01:51.039Z,3.04
2019-03-19T22:04:20.117Z,2.97
2019-03-19T22:06:49.088Z,2.89
2019-03-19T22:09:18.173Z,2.82
2019-03-19T22:11:47.232Z,2.77
2019-03-19T22:14:16.242Z,2.74
2019-03-19T22:16:45.293Z,2.72
2019-03-19T22:19:14.379Z,2.71
2019-03-19T22:21:43.447Z,2.70
2019-03-19T22:24:12.537Z,2.69
2019-03-19T22:26:41.598Z,2.66
2019-03-19T22:29:12.623Z,2.64
2019-03-19T22:31:41.460Z,2.62
2019-03-19T22:34:14.305Z,2.61
2019-03-19T22:36:41.325Z,2.54
2019-03-19T22:39:10.412Z,2.51
2019-03-19T22:41:39.473Z,2.42
2019-03-19T22:44:08.538Z,2.37
2019-03-19T22:46:37.604Z,2.31
2019-03-19T22:49:06.720Z,2.21
2019-03-19T22:51:35.697Z,2.13
2019-03-19T22:54:04.886Z,2.06
2019-03-19T22:56:34.126Z,2.04
2019-03-19T22:59:03.213Z,2.02
2019-03-19T23:01:32.280Z,2.02
2019-03-19T23:04:01.351Z,2.01
2019-03-19T23:06:30.419Z,1.98
2019-03-19T23:08:59.492Z,1.95
2019-03-19T23:11:28.559Z,1.93
2019-03-19T23:13:57.633Z,1.90
2019-03-19T23:16:26.678Z,1.82
2019-03-19T23:18:55.767Z,1.79
2019-03-19T23:21:24.823Z,1.71
2019-03-19T23:23:53.900Z,1.65
2019-03-19T23:26:22.969Z,1.60
2019-03-19T23:28:52.028Z,1.57
2019-03-19T23:31:21.090Z,1.56
2019-03-19T23:33:50.171Z,1.53
2019-03-19T23:36:19.233Z,1.50
2019-03-19T23:38:48.244Z,1.46
2019-03-19T23:41:17.307Z,1.45
2019-03-19T23:43:46.316Z,1.42
2019-03-19T23:46:15.378Z,1.36
2019-03-19T23:48:44.408Z,1.28
2019-03-19T23:51:13.410Z,1.25
2019-03-19T23:53:42.411Z,1.22
2019-03-19T23:56:11.486Z,1.20
2019-03-19T23:58:40.552Z,1.15
